createdAt,value
2018-07-05T00:02:34.419Z,100506.50
2018-07-05T00:05:14.139Z,100511.09
2018-07-05T00:07:54.005Z,100509.75
2018-07-05T00:10:33.825Z,100506.76
2018-07-05T00:13:13.438Z,100503.14
2018-07-05T00:15:53.161Z,100504.60
2018-07-05T00:18:32.882Z,100493.55
2018-07-05T00:21:12.692Z,100492.22
2018-07-05T00:23:52.487Z,100490.23
2018-07-05T00:26:34.588Z,100494.48
2018-07-05T00:29:14.082Z,100489.64
2018-07-05T00:31:53.862Z,100484.83
2018-07-05T00:34:34.203Z,100490.59
2018-07-05T00:37:13.905Z,100499.21
2018-07-05T00:39:53.589Z,100498.88
2018-07-05T00:42:35.009Z,100502.36
2018-07-05T00:45:14.798Z,100501.05
2018-07-05T00:47:54.519Z,100499.30
2018-07-05T00:50:34.766Z,100493.22
2018-07-05T00:53:14.485Z,100501.45
2018-07-05T00:55:54.410Z,100512.69
2018-07-05T00:58:35.260Z,100499.47
2018-07-05T01:01:15.736Z,100497.13
2018-07-05T01:03:55.559Z,100501.39
2018-07-05T01:06:35.421Z,100493.03
2018-07-05T01:09:15.133Z,100495.92
2018-07-05T01:11:54.837Z,100500.17
2018-07-05T01:14:35.413Z,100494.58
2018-07-05T01:17:15.302Z,100496.58
2018-07-05T01:19:55.073Z,100486.31
2018-07-05T01:22:34.931Z,100490.08
2018-07-05T01:25:14.741Z,100485.60
2018-07-05T01:27:54.498Z,100489.98
2018-07-05T01:30:35.669Z,100486.00
2018-07-05T01:33:15.232Z,100481.53
2018-07-05T01:35:54.929Z,100481.55
2018-07-05T01:38:34.585Z,100478.08
2018-07-05T01:41:14.275Z,100478.71
2018-07-05T01:43:53.949Z,100484.13
2018-07-05T01:46:33.850Z,100483.81
2018-07-05T01:49:13.609Z,100481.67
2018-07-05T01:51:53.411Z,100481.39
2018-07-05T01:54:33.822Z,100482.54
2018-07-05T01:57:13.455Z,100479.88
2018-07-05T01:59:53.185Z,100477.20
2018-07-05T02:02:32.872Z,100469.94
2018-07-05T02:05:12.438Z,100466.95
2018-07-05T02:07:52.162Z,100472.45
2018-07-05T02:10:31.901Z,100468.34
2018-07-05T02:13:11.594Z,100473.28
2018-07-05T02:15:51.346Z,100476.30
2018-07-05T02:18:32.093Z,100469.32
2018-07-05T02:21:11.826Z,100470.14
2018-07-05T02:23:51.618Z,100481.88
2018-07-05T02:26:32.072Z,100475.73
2018-07-05T02:29:11.722Z,100474.00
2018-07-05T02:31:51.339Z,100468.36
2018-07-05T02:34:30.906Z,100464.98
2018-07-05T02:37:17.253Z,100473.71
2018-07-05T02:39:56.999Z,100474.83
2018-07-05T02:42:36.856Z,100467.87
2018-07-05T02:45:16.771Z,100463.89
2018-07-05T02:47:56.319Z,100461.91
2018-07-05T02:50:35.833Z,100462.03
2018-07-05T02:53:15.511Z,100465.86
2018-07-05T02:55:55.198Z,100465.03
2018-07-05T02:58:34.705Z,100466.18
2018-07-05T03:01:14.445Z,100465.22
2018-07-05T03:03:54.145Z,100465.86
2018-07-05T03:06:33.786Z,100468.45
2018-07-05T03:09:13.461Z,100469.61
2018-07-05T03:11:53.245Z,100472.73
2018-07-05T03:14:34.325Z,100468.15
2018-07-05T03:17:14.149Z,100460.88
2018-07-05T03:19:53.926Z,100464.47
2018-07-05T03:22:34.316Z,100467.94
2018-07-05T03:25:14.001Z,100468.31
2018-07-05T03:27:53.801Z,100472.89
2018-07-05T03:30:34.449Z,100479.78
2018-07-05T03:33:14.293Z,100492.09
2018-07-05T03:35:54.078Z,100494.76
2018-07-05T03:38:34.405Z,100487.63
2018-07-05T03:41:13.995Z,100484.80
2018-07-05T03:43:53.508Z,100481.67
2018-07-05T03:46:33.826Z,100481.69
2018-07-05T03:49:13.540Z,100478.09
2018-07-05T03:51:53.342Z,100482.83
2018-07-05T03:54:34.366Z,100481.57
2018-07-05T03:57:14.117Z,100475.64
2018-07-05T03:59:53.811Z,100478.02
2018-07-05T04:02:35.308Z,100475.73
2018-07-05T04:05:16.424Z,100483.07
2018-07-05T04:07:56.078Z,100481.59
2018-07-05T04:10:35.697Z,100483.12
2018-07-05T04:13:15.242Z,100480.28
2018-07-05T04:15:55.026Z,100484.08
2018-07-05T04:18:34.740Z,100483.73
2018-07-05T04:21:14.485Z,100482.35
2018-07-05T04:23:54.202Z,100486.31
2018-07-05T04:26:34.854Z,100483.35
2018-07-05T04:29:14.486Z,100477.00
2018-07-05T04:31:54.166Z,100481.77
2018-07-05T04:34:35.027Z,100477.92
2018-07-05T04:37:14.674Z,100477.58
2018-07-05T04:39:54.458Z,100478.88
2018-07-05T04:42:34.810Z,100478.49
2018-07-05T04:45:14.653Z,100479.11
2018-07-05T04:47:54.362Z,100478.92
2018-07-05T04:50:35.132Z,100480.38
2018-07-05T04:53:14.838Z,100479.48
2018-07-05T04:55:54.666Z,100482.09
2018-07-05T04:58:34.757Z,100482.13
2018-07-05T05:01:14.529Z,100484.70
2018-07-05T05:03:54.031Z,100483.82
2018-07-05T05:06:33.849Z,100492.23
2018-07-05T05:09:13.409Z,100489.58
2018-07-05T05:11:53.581Z,100485.06
2018-07-05T05:14:34.287Z,100489.49
2018-07-05T05:17:13.985Z,100493.42
2018-07-05T05:19:53.746Z,100493.38
2018-07-05T05:22:34.194Z,100493.66
2018-07-05T05:25:14.102Z,100499.17
2018-07-05T05:27:53.850Z,100499.73
2018-07-05T05:30:34.370Z,100495.10
2018-07-05T05:33:13.923Z,100496.73
2018-07-05T05:35:53.510Z,100498.41
2018-07-05T05:38:34.264Z,100498.20
2018-07-05T05:41:14.027Z,100494.91
2018-07-05T05:43:53.723Z,100505.65
2018-07-05T05:46:35.019Z,100500.55
2018-07-05T05:49:14.827Z,100492.73
2018-07-05T05:51:56.971Z,100489.73
2018-07-05T05:54:36.694Z,100489.75
2018-07-05T05:57:16.511Z,100491.19
2018-07-05T05:59:56.897Z,100495.32
2018-07-05T06:02:36.670Z,100486.56
2018-07-05T06:05:16.443Z,100489.48
2018-07-05T06:07:57.055Z,100484.77
2018-07-05T06:10:36.731Z,100487.52
2018-07-05T06:13:16.548Z,100494.67
2018-07-05T06:15:57.086Z,100491.50
2018-07-05T06:18:37.124Z,100498.25
2018-07-05T06:21:16.960Z,100496.17
2018-07-05T06:23:57.217Z,100498.05
2018-07-05T06:26:37.158Z,100496.75
2018-07-05T06:29:16.841Z,100499.14
2018-07-05T06:31:57.205Z,100496.81
2018-07-05T06:34:36.945Z,100498.00
2018-07-05T06:37:16.754Z,100501.05
2018-07-05T06:39:57.424Z,100495.74
2018-07-05T06:42:37.141Z,100503.79
2018-07-05T06:45:16.804Z,100499.41
2018-07-05T06:47:57.267Z,100498.09
2018-07-05T06:50:37.013Z,100494.66
2018-07-05T06:53:16.626Z,100496.34
2018-07-05T06:55:56.333Z,100497.25
2018-07-05T06:58:36.256Z,100493.44
2018-07-05T07:01:15.934Z,100498.94
2018-07-05T07:03:56.264Z,100502.65
2018-07-05T07:06:36.019Z,100495.28
2018-07-05T07:09:15.554Z,100496.62
2018-07-05T07:11:55.161Z,100494.97
2018-07-05T07:14:35.257Z,100502.70
2018-07-05T07:17:14.974Z,100503.92
2018-07-05T07:19:54.547Z,100498.91
2018-07-05T07:22:34.836Z,100500.34
2018-07-05T07:25:14.292Z,100503.84
2018-07-05T07:27:53.890Z,100506.02
2018-07-05T07:30:34.363Z,100501.18
2018-07-05T07:33:13.964Z,100502.81
2018-07-05T07:35:53.626Z,100504.67
2018-07-05T07:38:34.385Z,100511.27
2018-07-05T07:41:14.146Z,100506.55
2018-07-05T07:43:41.429Z,100507.23
2018-07-05T07:46:08.745Z,100510.94
2018-07-05T07:48:36.017Z,100510.27
2018-07-05T07:51:03.924Z,100506.35
2018-07-05T07:53:31.206Z,100504.58
2018-07-05T07:55:58.488Z,100505.30
2018-07-05T07:58:26.298Z,100496.30
2018-07-05T08:00:53.644Z,100494.83
2018-07-05T08:03:20.975Z,100496.75
2018-07-05T08:05:48.246Z,100502.28
2018-07-05T08:08:15.579Z,100493.04
2018-07-05T08:10:42.870Z,100490.83
2018-07-05T08:13:10.161Z,100498.50
2018-07-05T08:15:38.165Z,100492.28
2018-07-05T08:18:06.139Z,100486.50
2018-07-05T08:20:35.200Z,100493.61
2018-07-05T08:23:04.182Z,100492.13
2018-07-05T08:25:31.461Z,100485.38
2018-07-05T08:27:58.741Z,100486.91
2018-07-05T08:30:26.628Z,100482.44
2018-07-05T08:32:53.909Z,100491.06
2018-07-05T08:35:21.205Z,100489.19
2018-07-05T08:37:48.519Z,100486.89
2018-07-05T08:40:15.810Z,100483.70
2018-07-05T08:42:43.125Z,100484.64
2018-07-05T08:45:10.468Z,100482.69
2018-07-05T08:47:37.748Z,100483.69
2018-07-05T08:50:05.031Z,100481.64
2018-07-05T08:52:32.329Z,100473.33
2018-07-05T08:54:59.626Z,100469.53
2018-07-05T08:57:27.427Z,100469.28
2018-07-05T08:59:54.702Z,100465.74
2018-07-05T09:02:22.009Z,100467.55
2018-07-05T09:04:49.304Z,100461.27
2018-07-05T09:07:16.601Z,100461.30
2018-07-05T09:09:43.886Z,100463.48
2018-07-05T09:12:11.187Z,100459.17
2018-07-05T09:14:38.733Z,100461.52
2018-07-05T09:17:06.477Z,100460.06
2018-07-05T09:19:33.762Z,100461.22
2018-07-05T09:22:01.061Z,100458.89
2018-07-05T09:24:28.342Z,100461.48
2018-07-05T09:26:56.274Z,100457.55
2018-07-05T09:29:23.590Z,100454.26
2018-07-05T09:31:50.876Z,100462.57
2018-07-05T09:34:18.169Z,100462.84
2018-07-05T09:36:45.462Z,100458.32
2018-07-05T09:39:12.747Z,100459.58
2018-07-05T09:41:40.034Z,100455.41
2018-07-05T09:44:07.360Z,100460.41
2018-07-05T09:46:35.558Z,100461.52
2018-07-05T09:49:02.834Z,100456.78
2018-07-05T09:51:30.126Z,100456.47
2018-07-05T09:53:58.098Z,100457.37
2018-07-05T09:56:25.385Z,100455.27
2018-07-05T09:58:52.669Z,100452.17
2018-07-05T10:01:19.958Z,100451.28
2018-07-05T10:03:47.305Z,100451.91
2018-07-05T10:06:14.546Z,100457.02
2018-07-05T10:08:41.846Z,100454.48
2018-07-05T10:11:09.189Z,100457.30
2018-07-05T10:13:36.727Z,100454.02
2018-07-05T10:16:03.824Z,100452.72
2018-07-05T10:18:31.125Z,100449.88
2018-07-05T10:20:59.297Z,100449.30
2018-07-05T10:23:27.925Z,100443.91
2018-07-05T10:25:55.205Z,100441.22
2018-07-05T10:28:22.506Z,100434.81
2018-07-05T10:31:02.246Z,100433.66
2018-07-05T10:33:42.373Z,100424.56
2018-07-05T10:36:09.650Z,100423.84
2018-07-05T10:38:36.945Z,100422.22
2018-07-05T10:41:16.762Z,100415.95
2018-07-05T10:43:57.601Z,100417.27
2018-07-05T10:46:37.294Z,100417.42
2018-07-05T10:49:17.669Z,100408.94
2018-07-05T10:51:58.193Z,100408.25
2018-07-05T10:54:37.795Z,100407.27
2018-07-05T10:57:17.538Z,100398.50
2018-07-05T10:59:57.832Z,100402.00
2018-07-05T11:02:37.649Z,100394.05
2018-07-05T11:05:17.421Z,100390.69
2018-07-05T11:07:58.154Z,100393.76
2018-07-05T11:10:37.878Z,100392.98
2018-07-05T11:13:17.701Z,100396.23
2018-07-05T11:15:58.281Z,100390.77
2018-07-05T11:18:37.929Z,100384.12
2018-07-05T11:21:17.553Z,100376.91
2018-07-05T11:23:58.269Z,100371.92
2018-07-05T11:26:37.957Z,100370.15
2018-07-05T11:29:17.654Z,100367.61
2018-07-05T11:31:57.442Z,100365.82
2018-07-05T11:34:37.077Z,100361.91
2018-07-05T11:37:16.853Z,100352.30
2018-07-05T11:39:57.562Z,100354.38
2018-07-05T11:42:37.160Z,100348.09
2018-07-05T11:45:16.785Z,100343.13
2018-07-05T11:47:57.345Z,100340.48
2018-07-05T11:50:37.096Z,100331.97
2018-07-05T11:53:16.731Z,100340.25
2018-07-05T11:55:57.333Z,100335.49
2018-07-05T11:58:37.005Z,100333.97
2018-07-05T12:01:16.846Z,100328.83
2018-07-05T12:03:57.981Z,100337.96
2018-07-05T12:06:37.665Z,100324.46
2018-07-05T12:09:17.430Z,100330.67
2018-07-05T12:11:57.534Z,100326.25
2018-07-05T12:14:37.438Z,100329.27
2018-07-05T12:17:17.219Z,100324.39
2018-07-05T12:19:57.441Z,100323.11
2018-07-05T12:22:37.278Z,100318.95
2018-07-05T12:25:17.642Z,100305.89
2018-07-05T12:27:57.469Z,100304.87
2018-07-05T12:30:37.176Z,100303.80
2018-07-05T12:33:17.477Z,100293.34
2018-07-05T12:35:58.473Z,100297.73
2018-07-05T12:38:38.242Z,100284.98
2018-07-05T12:41:17.801Z,100291.22
2018-07-05T12:43:57.479Z,100290.95
2018-07-05T12:46:37.280Z,100284.98
2018-07-05T12:49:17.659Z,100285.26
2018-07-05T12:51:57.999Z,100283.10
2018-07-05T12:54:37.700Z,100278.73
2018-07-05T12:57:17.577Z,100275.75
2018-07-05T12:59:58.173Z,100273.03
2018-07-05T13:02:37.869Z,100275.45
2018-07-05T13:05:17.474Z,100275.42
2018-07-05T13:07:57.870Z,100274.91
2018-07-05T13:10:37.634Z,100267.32
2018-07-05T13:13:17.505Z,100275.02
2018-07-05T13:15:57.565Z,100266.58
2018-07-05T13:18:37.254Z,100262.80
2018-07-05T13:21:18.183Z,100267.04
2018-07-05T13:23:57.854Z,100266.77
2018-07-05T13:26:37.546Z,100258.21
2018-07-05T13:29:17.054Z,100259.45
2018-07-05T13:31:57.002Z,100259.22
2018-07-05T13:34:36.643Z,100250.83
2018-07-05T13:37:16.746Z,100253.79
2018-07-05T13:39:57.353Z,100256.70
2018-07-05T13:42:36.857Z,100265.59
2018-07-05T13:45:17.081Z,100264.64
2018-07-05T13:47:57.496Z,100267.09
2018-07-05T13:50:37.230Z,100264.88
2018-07-05T13:53:17.478Z,100265.47
2018-07-05T13:55:57.562Z,100259.16
2018-07-05T13:58:37.186Z,100258.13
2018-07-05T14:01:17.885Z,100258.13
2018-07-05T14:03:58.385Z,100253.80
2018-07-05T14:06:38.893Z,100256.72
2018-07-05T14:09:18.785Z,100249.85
2018-07-05T14:11:58.387Z,100249.67
2018-07-05T14:14:38.146Z,100246.48
2018-07-05T14:17:17.956Z,100241.59
2018-07-05T14:19:59.077Z,100240.70
2018-07-05T14:22:38.843Z,100240.41
2018-07-05T14:25:18.621Z,100237.17
2018-07-05T14:27:58.281Z,100238.99
2018-07-05T14:30:37.977Z,100239.66
2018-07-05T14:33:17.786Z,100232.91
2018-07-05T14:35:58.360Z,100230.79
2018-07-05T14:38:38.148Z,100228.94
2018-07-05T14:41:17.786Z,100239.09
2018-07-05T14:43:57.645Z,100242.13
2018-07-05T14:46:37.341Z,100232.31
2018-07-05T14:49:18.502Z,100221.09
2018-07-05T14:51:58.185Z,100225.91
2018-07-05T14:54:37.751Z,100221.89
2018-07-05T14:57:17.453Z,100226.16
2018-07-05T14:59:57.599Z,100225.75
2018-07-05T15:02:37.262Z,100229.98
2018-07-05T15:05:17.945Z,100223.58
2018-07-05T15:07:57.594Z,100226.92
2018-07-05T15:10:37.289Z,100226.70
2018-07-05T15:13:18.455Z,100231.38
2018-07-05T15:15:58.073Z,100229.81
2018-07-05T15:18:37.741Z,100222.45
2018-07-05T15:21:17.310Z,100231.56
2018-07-05T15:23:57.529Z,100229.47
2018-07-05T15:26:37.238Z,100230.65
2018-07-05T15:29:17.910Z,100227.23
2018-07-05T15:31:58.677Z,100234.79
2018-07-05T15:34:38.365Z,100226.70
2018-07-05T15:37:17.933Z,100224.50
2018-07-05T15:39:58.669Z,100221.86
2018-07-05T15:42:38.444Z,100234.54
2018-07-05T15:45:18.089Z,100222.75
2018-07-05T15:47:58.897Z,100230.04
2018-07-05T15:50:38.573Z,100229.06
2018-07-05T15:53:18.463Z,100222.34
2018-07-05T15:55:58.640Z,100219.34
2018-07-05T15:58:38.479Z,100221.81
2018-07-05T16:01:18.269Z,100226.82
2018-07-05T16:03:57.961Z,100219.68
2018-07-05T16:06:37.737Z,100221.76
2018-07-05T16:09:17.466Z,100212.52
2018-07-05T16:11:58.481Z,100218.50
2018-07-05T16:14:38.159Z,100210.39
2018-07-05T16:17:17.945Z,100210.74
2018-07-05T16:19:57.625Z,100213.02
2018-07-05T16:22:37.309Z,100218.05
2018-07-05T16:25:18.252Z,100214.45
2018-07-05T16:27:58.143Z,100210.14
2018-07-05T16:30:37.835Z,100215.72
2018-07-05T16:33:17.435Z,100213.14
2018-07-05T16:35:57.649Z,100210.02
2018-07-05T16:38:37.397Z,100215.58
2018-07-05T16:41:16.885Z,100212.73
2018-07-05T16:43:57.657Z,100217.55
2018-07-05T16:46:37.317Z,100216.66
2018-07-05T16:49:18.603Z,100209.62
2018-07-05T16:51:58.245Z,100216.47
2018-07-05T16:54:38.000Z,100213.50
2018-07-05T16:57:17.766Z,100220.80
2018-07-05T16:59:58.721Z,100218.16
2018-07-05T17:02:38.428Z,100221.64
2018-07-05T17:05:18.073Z,100224.67
2018-07-05T17:07:58.472Z,100225.31
2018-07-05T17:10:38.153Z,100226.27
2018-07-05T17:13:17.975Z,100229.57
2018-07-05T17:15:59.209Z,100237.14
2018-07-05T17:18:39.065Z,100232.81
2018-07-05T17:21:18.745Z,100233.95
2018-07-05T17:23:58.490Z,100235.48
2018-07-05T17:26:38.240Z,100240.44
2018-07-05T17:29:17.920Z,100234.53
2018-07-05T17:31:58.604Z,100241.69
2018-07-05T17:34:38.447Z,100246.21
2018-07-05T17:37:18.011Z,100242.33
2018-07-05T17:39:59.281Z,100243.18
2018-07-05T17:42:38.949Z,100249.02
2018-07-05T17:45:18.802Z,100247.11
2018-07-05T17:47:58.565Z,100252.55
2018-07-05T17:50:38.408Z,100251.88
2018-07-05T17:53:18.066Z,100251.08
2018-07-05T17:55:59.073Z,100247.13
2018-07-05T17:58:38.720Z,100248.33
2018-07-05T18:01:18.495Z,100255.30
2018-07-05T18:03:58.125Z,100261.09
2018-07-05T18:06:37.881Z,100267.19
2018-07-05T18:09:18.028Z,100274.35
2018-07-05T18:11:57.702Z,100270.53
2018-07-05T18:14:37.461Z,100275.53
2018-07-05T18:17:17.162Z,100286.62
2018-07-05T18:19:57.731Z,100291.73
2018-07-05T18:22:37.519Z,100291.16
2018-07-05T18:25:17.434Z,100295.25
2018-07-05T18:27:57.854Z,100299.95
2018-07-05T18:30:37.602Z,100297.84
2018-07-05T18:33:17.297Z,100302.70
2018-07-05T18:35:57.934Z,100305.20
2018-07-05T18:38:37.511Z,100306.00
2018-07-05T18:41:17.370Z,100306.17
2018-07-05T18:43:58.401Z,100311.17
2018-07-05T18:46:38.197Z,100314.35
2018-07-05T18:49:17.998Z,100311.91
2018-07-05T18:51:57.809Z,100315.05
2018-07-05T18:54:37.626Z,100315.80
2018-07-05T18:57:17.323Z,100320.40
2018-07-05T18:59:57.821Z,100323.77
2018-07-05T19:02:37.642Z,100331.39
2018-07-05T19:05:17.581Z,100335.95
2018-07-05T19:07:58.198Z,100338.21
2018-07-05T19:10:37.954Z,100345.41
2018-07-05T19:13:17.888Z,100346.23
2018-07-05T19:15:57.852Z,100350.92
2018-07-05T19:18:37.766Z,100351.18
2018-07-05T19:21:17.798Z,100356.39
2018-07-05T19:23:58.974Z,100359.59
2018-07-05T19:26:38.803Z,100359.73
2018-07-05T19:29:18.708Z,100361.21
2018-07-05T19:31:58.806Z,100367.53
2018-07-05T19:34:38.766Z,100363.25
2018-07-05T19:37:18.581Z,100364.33
2018-07-05T19:39:58.534Z,100370.23
2018-07-05T19:42:38.576Z,100371.31
2018-07-05T19:45:18.387Z,100372.05
2018-07-05T19:47:58.349Z,100375.17
2018-07-05T19:50:38.284Z,100379.92
2018-07-05T19:53:18.282Z,100384.11
2018-07-05T19:55:58.796Z,100385.38
2018-07-05T19:58:38.671Z,100383.44
2018-07-05T20:01:18.751Z,100387.59
2018-07-05T20:03:58.640Z,100392.05
2018-07-05T20:06:38.596Z,100398.73
2018-07-05T20:09:19.432Z,100399.36
2018-07-05T20:12:05.076Z,100398.71
2018-07-05T20:14:45.033Z,100399.87
2018-07-05T20:17:24.971Z,100404.20
2018-07-05T20:20:05.048Z,100408.83
2018-07-05T20:22:44.912Z,100405.56
2018-07-05T20:25:24.827Z,100409.47
2018-07-05T20:28:05.326Z,100413.89
2018-07-05T20:30:45.316Z,100418.84
2018-07-05T20:33:25.212Z,100420.98
2018-07-05T20:36:05.139Z,100422.92
2018-07-05T20:38:44.959Z,100424.77
2018-07-05T20:41:24.655Z,100423.22
2018-07-05T20:44:05.424Z,100432.95
2018-07-05T20:46:45.374Z,100432.12
2018-07-05T20:49:25.206Z,100440.03
2018-07-05T20:52:05.534Z,100447.42
2018-07-05T20:54:45.392Z,100442.75
2018-07-05T20:57:25.376Z,100446.63
2018-07-05T21:00:05.217Z,100446.84
2018-07-05T21:02:45.062Z,100455.83
2018-07-05T21:05:24.755Z,100467.84
2018-07-05T21:08:04.898Z,100468.02
2018-07-05T21:10:44.496Z,100473.12
2018-07-05T21:13:24.404Z,100477.92
2018-07-05T21:16:05.346Z,100491.61
2018-07-05T21:18:45.181Z,100494.13
2018-07-05T21:21:24.915Z,100494.45
2018-07-05T21:24:05.329Z,100497.66
2018-07-05T21:26:44.926Z,100497.04
2018-07-05T21:29:24.589Z,100500.41
2018-07-05T21:32:05.018Z,100507.66
2018-07-05T21:34:45.009Z,100508.88
2018-07-05T21:37:24.658Z,100514.33
2018-07-05T21:40:05.669Z,100526.16
2018-07-05T21:42:45.513Z,100526.67
2018-07-05T21:45:25.169Z,100528.53
2018-07-05T21:48:04.837Z,100537.86
2018-07-05T21:50:44.357Z,100544.78
2018-07-05T21:53:24.125Z,100551.77
2018-07-05T21:56:03.855Z,100552.53
2018-07-05T21:58:43.606Z,100551.44
2018-07-05T22:01:23.353Z,100550.75
2018-07-05T22:04:03.969Z,100546.73
2018-07-05T22:06:43.605Z,100554.48
2018-07-05T22:09:23.477Z,100559.28
2018-07-05T22:12:04.338Z,100561.95
2018-07-05T22:14:44.081Z,100563.37
2018-07-05T22:17:29.287Z,100563.97
2018-07-05T22:20:14.377Z,100564.08
2018-07-05T22:22:59.577Z,100571.51
2018-07-05T22:25:44.787Z,100565.30
2018-07-05T22:28:30.081Z,100567.69
2018-07-05T22:31:15.250Z,100577.75
2018-07-05T22:33:54.978Z,100584.55
2018-07-05T22:36:35.483Z,100588.64
2018-07-05T22:39:15.142Z,100592.89
2018-07-05T22:41:54.929Z,100590.12
2018-07-05T22:44:35.100Z,100594.31
2018-07-05T22:47:15.165Z,100599.31
2018-07-05T22:49:54.685Z,100608.98
2018-07-05T22:52:35.762Z,100607.82
2018-07-05T22:55:15.345Z,100615.67
2018-07-05T22:57:55.021Z,100614.38
2018-07-05T23:00:35.205Z,100611.42
2018-07-05T23:03:14.798Z,100614.43
2018-07-05T23:05:54.457Z,100620.40
2018-07-05T23:08:35.336Z,100623.19
2018-07-05T23:11:15.820Z,100624.39
2018-07-05T23:13:55.578Z,100628.06
2018-07-05T23:16:35.261Z,100622.56
2018-07-05T23:19:15.201Z,100625.88
2018-07-05T23:21:54.874Z,100634.35
2018-07-05T23:24:35.070Z,100634.20
2018-07-05T23:27:14.629Z,100635.89
2018-07-05T23:29:54.272Z,100637.70
2018-07-05T23:32:34.246Z,100635.09
2018-07-05T23:35:14.106Z,100636.37
2018-07-05T23:37:53.777Z,100641.02
2018-07-05T23:40:34.314Z,100640.36
2018-07-05T23:43:14.035Z,100636.89
2018-07-05T23:45:53.697Z,100641.67
2018-07-05T23:48:34.373Z,100640.86
2018-07-05T23:51:14.107Z,100642.36
2018-07-05T23:53:53.776Z,100637.03
2018-07-05T23:56:35.238Z,100648.30
2018-07-05T23:59:15.023Z,100652.27
